createdAt,value
2023-01-13T00:01:19.428Z,6.07
2023-01-13T00:03:46.743Z,6.09
2023-01-13T00:06:18.385Z,6.12
2023-01-13T00:08:48.495Z,6.16
2023-01-13T00:11:15.955Z,6.19
2023-01-13T00:13:43.297Z,6.24
2023-01-13T00:16:12.992Z,6.27
2023-01-13T00:18:40.033Z,6.27
2023-01-13T00:21:11.752Z,6.26
2023-01-13T00:23:40.059Z,6.26
2023-01-13T00:26:12.961Z,6.26
2023-01-13T00:28:40.425Z,6.25
2023-01-13T00:31:09.086Z,6.26
2023-01-13T00:33:37.270Z,6.24
2023-01-13T00:36:06.000Z,6.20
2023-01-13T00:38:35.637Z,6.17
2023-01-13T00:41:06.093Z,6.15
2023-01-13T00:43:35.388Z,6.15
2023-01-13T00:46:04.197Z,6.16
2023-01-13T00:48:31.911Z,6.17
2023-01-13T00:51:04.391Z,6.19
2023-01-13T00:53:35.341Z,6.19
2023-01-13T00:56:15.038Z,6.19
2023-01-13T00:58:43.549Z,6.15
2023-01-13T01:01:13.291Z,6.14
2023-01-13T01:03:41.143Z,6.14
2023-01-13T01:06:12.762Z,6.18
2023-01-13T01:08:39.931Z,6.19
2023-01-13T01:11:09.774Z,6.20
2023-01-13T01:13:37.194Z,6.21
2023-01-13T01:16:09.392Z,6.21
2023-01-13T01:18:42.468Z,6.23
2023-01-13T01:21:10.934Z,6.25
2023-01-13T01:23:39.366Z,6.25
2023-01-13T01:26:09.269Z,6.29
2023-01-13T01:28:36.669Z,6.30
2023-01-13T01:31:13.685Z,6.32
2023-01-13T01:33:41.593Z,6.33
2023-01-13T01:36:10.226Z,6.36
2023-01-13T01:38:37.751Z,6.42
2023-01-13T01:41:05.294Z,6.48
2023-01-13T01:44:08.506Z,6.52
2023-01-13T01:46:37.583Z,6.58
2023-01-13T01:49:26.608Z,6.59
2023-01-13T01:52:02.638Z,6.61
2023-01-13T01:54:35.371Z,6.60
2023-01-13T01:57:02.655Z,6.59
2023-01-13T01:59:33.009Z,6.59
2023-01-13T02:02:00.554Z,6.58
2023-01-13T02:04:36.717Z,6.60
2023-01-13T02:07:04.899Z,6.63
2023-01-13T02:09:33.369Z,6.65
2023-01-13T02:12:20.042Z,6.67
2023-01-13T02:14:47.785Z,6.66
2023-01-13T02:17:40.803Z,6.64
2023-01-13T02:20:50.197Z,6.65
2023-01-13T02:24:03.549Z,6.67
2023-01-13T02:26:53.075Z,6.70
2023-01-13T02:30:10.808Z,6.70
2023-01-13T02:32:56.189Z,6.67
2023-01-13T02:35:29.545Z,6.62
2023-01-13T02:37:59.906Z,6.59
2023-01-13T02:40:41.231Z,6.59
2023-01-13T02:43:51.631Z,6.61
2023-01-13T02:46:30.508Z,6.63
2023-01-13T02:49:05.275Z,6.62
2023-01-13T02:51:34.155Z,6.60
2023-01-13T02:54:08.027Z,6.58
2023-01-13T02:56:40.908Z,6.56
2023-01-13T02:59:09.678Z,6.53
2023-01-13T03:01:37.551Z,6.53
2023-01-13T03:04:15.809Z,6.52
2023-01-13T03:07:02.191Z,6.55
2023-01-13T03:09:43.829Z,6.57
2023-01-13T03:12:17.024Z,6.59
2023-01-13T03:15:13.757Z,6.59
2023-01-13T03:17:50.325Z,6.61
2023-01-13T03:20:25.929Z,6.64
2023-01-13T03:23:07.249Z,6.68
2023-01-13T03:25:51.259Z,6.70
2023-01-13T03:28:30.123Z,6.72
2023-01-13T03:31:08.585Z,6.71
2023-01-13T03:33:41.404Z,6.71
2023-01-13T03:36:11.730Z,6.72
2023-01-13T03:38:48.314Z,6.73
2023-01-13T03:41:22.689Z,6.75
2023-01-13T03:44:15.121Z,6.77
2023-01-13T03:46:51.362Z,6.79
2023-01-13T03:49:24.206Z,6.80
2023-01-13T03:51:57.156Z,6.80
2023-01-13T03:54:28.400Z,6.81
2023-01-13T03:57:00.776Z,6.82
2023-01-13T03:59:33.935Z,6.85
2023-01-13T04:02:07.452Z,6.88
2023-01-13T04:04:45.087Z,6.89
2023-01-13T04:07:32.258Z,6.89
2023-01-13T04:10:06.883Z,6.89
2023-01-13T04:13:00.177Z,6.89
2023-01-13T04:15:31.365Z,6.89
2023-01-13T04:18:17.962Z,6.91
2023-01-13T04:20:46.875Z,6.95
2023-01-13T04:23:14.014Z,6.97
2023-01-13T04:25:42.766Z,7.01
2023-01-13T04:28:11.406Z,7.00
2023-01-13T04:30:39.209Z,7.00
2023-01-13T04:33:06.729Z,7.00
2023-01-13T04:35:35.611Z,6.98
2023-01-13T04:38:08.606Z,6.95
2023-01-13T04:40:35.622Z,6.96
2023-01-13T04:43:03.505Z,6.98
2023-01-13T04:45:36.941Z,7.01
2023-01-13T04:48:09.908Z,7.04
2023-01-13T04:50:37.019Z,7.04
2023-01-13T04:53:04.170Z,7.01
2023-01-13T04:55:32.577Z,7.01
2023-01-13T04:58:04.797Z,7.00
2023-01-13T05:00:32.373Z,6.99
2023-01-13T05:02:59.931Z,7.01
2023-01-13T05:05:29.104Z,7.02
2023-01-13T05:07:56.300Z,7.06
2023-01-13T05:10:24.129Z,7.08
2023-01-13T05:13:09.816Z,7.09
2023-01-13T05:15:56.068Z,7.08
2023-01-13T05:18:23.376Z,7.05
2023-01-13T05:20:50.497Z,7.02
2023-01-13T05:23:36.495Z,7.02
2023-01-13T05:26:03.445Z,7.02
2023-01-13T05:28:34.575Z,7.01
2023-01-13T05:31:09.050Z,7.00
2023-01-13T05:33:36.390Z,6.99
2023-01-13T05:36:04.318Z,7.00
2023-01-13T05:38:31.358Z,7.03
2023-01-13T05:41:36.803Z,7.05
2023-01-13T05:44:04.106Z,7.08
2023-01-13T05:46:31.256Z,7.10
2023-01-13T05:49:00.339Z,7.10
2023-01-13T05:51:27.781Z,7.09
2023-01-13T05:53:55.078Z,7.06
2023-01-13T05:56:22.255Z,7.06
2023-01-13T05:58:49.495Z,7.03
2023-01-13T06:01:16.618Z,7.02
2023-01-13T06:03:43.584Z,6.98
2023-01-13T06:06:10.918Z,6.96
2023-01-13T06:08:39.748Z,6.98
2023-01-13T06:11:07.859Z,6.99
2023-01-13T06:13:35.044Z,7.03
2023-01-13T06:16:02.168Z,7.03
2023-01-13T06:18:29.636Z,7.04
2023-01-13T06:20:57.113Z,7.03
2023-01-13T06:23:24.853Z,7.04
2023-01-13T06:26:16.577Z,7.03
2023-01-13T06:28:43.787Z,7.02
2023-01-13T06:31:11.809Z,7.03
2023-01-13T06:33:49.875Z,7.05
2023-01-13T06:36:22.561Z,7.06
2023-01-13T06:38:54.661Z,7.08
2023-01-13T06:41:42.823Z,7.07
2023-01-13T06:44:10.545Z,7.07
2023-01-13T06:46:37.788Z,7.04
2023-01-13T06:49:05.220Z,7.04
2023-01-13T06:51:32.342Z,7.05
2023-01-13T06:53:59.559Z,7.02
2023-01-13T06:56:27.002Z,7.01
2023-01-13T06:58:54.046Z,6.99
2023-01-13T07:01:21.505Z,6.99
2023-01-13T07:03:48.983Z,7.01
2023-01-13T07:06:16.121Z,7.02
2023-01-13T07:08:43.303Z,7.02
2023-01-13T07:11:11.381Z,7.01
2023-01-13T07:13:57.841Z,7.02
2023-01-13T07:16:25.563Z,7.01
2023-01-13T07:18:52.579Z,7.02
2023-01-13T07:21:20.491Z,7.04
2023-01-13T07:23:48.844Z,7.06
2023-01-13T07:26:17.041Z,7.09
2023-01-13T07:28:43.984Z,7.11
2023-01-13T07:31:21.557Z,7.12
2023-01-13T07:33:49.026Z,7.13
2023-01-13T07:36:16.342Z,7.12
2023-01-13T07:38:44.961Z,7.14
2023-01-13T07:41:34.950Z,7.13
2023-01-13T07:44:05.474Z,7.14
2023-01-13T07:46:34.031Z,7.16
2023-01-13T07:49:01.199Z,7.20
2023-01-13T07:51:28.454Z,7.24
2023-01-13T07:53:55.506Z,7.26
2023-01-13T07:56:22.559Z,7.27
2023-01-13T07:58:51.545Z,7.25
2023-01-13T08:01:19.921Z,7.23
2023-01-13T08:03:47.711Z,7.22
2023-01-13T08:06:15.714Z,7.22
2023-01-13T08:08:42.896Z,7.20
2023-01-13T08:11:10.050Z,7.20
2023-01-13T08:13:37.726Z,7.20
2023-01-13T08:16:07.865Z,7.23
2023-01-13T08:18:35.981Z,7.24
2023-01-13T08:21:06.919Z,7.25
2023-01-13T08:23:34.782Z,7.27
2023-01-13T08:26:03.573Z,7.29
2023-01-13T08:28:31.062Z,7.31
2023-01-13T08:31:06.568Z,7.34
2023-01-13T08:33:34.587Z,7.35
2023-01-13T08:36:06.864Z,7.37
2023-01-13T08:38:35.805Z,7.38
2023-01-13T08:41:09.799Z,7.40
2023-01-13T08:43:37.312Z,7.42
2023-01-13T08:46:05.391Z,7.42
2023-01-13T08:48:33.542Z,7.41
2023-01-13T08:51:08.530Z,7.38
2023-01-13T08:53:36.112Z,7.35
2023-01-13T08:56:08.698Z,7.33
2023-01-13T08:58:35.623Z,7.32
2023-01-13T09:01:07.041Z,7.31
2023-01-13T09:03:34.589Z,7.31
2023-01-13T09:06:13.497Z,7.33
2023-01-13T09:08:49.859Z,7.38
2023-01-13T09:11:45.012Z,7.43
2023-01-13T09:14:12.112Z,7.51
2023-01-13T09:16:39.196Z,7.54
2023-01-13T09:19:06.556Z,7.59
2023-01-13T09:21:34.397Z,7.62
2023-01-13T09:24:01.976Z,7.66
2023-01-13T09:26:29.041Z,7.70
2023-01-13T09:28:56.636Z,7.74
2023-01-13T09:31:23.910Z,7.77
2023-01-13T09:34:10.079Z,7.79
2023-01-13T09:36:37.439Z,7.82
2023-01-13T09:39:04.888Z,7.84
2023-01-13T09:42:05.239Z,7.91
2023-01-13T09:45:04.965Z,7.99
2023-01-13T09:47:44.187Z,8.11
2023-01-13T09:50:14.503Z,8.23
2023-01-13T09:52:46.079Z,8.36
2023-01-13T09:55:17.954Z,8.48
2023-01-13T09:57:45.488Z,8.56
2023-01-13T10:00:38.472Z,8.60
2023-01-13T10:03:23.648Z,8.64
2023-01-13T10:06:30.065Z,8.69
2023-01-13T10:08:58.327Z,8.73
2023-01-13T10:12:01.231Z,8.76
2023-01-13T10:14:40.495Z,8.81
2023-01-13T10:17:29.614Z,8.96
2023-01-13T10:20:15.835Z,9.12
2023-01-13T10:23:19.029Z,9.15
2023-01-13T10:25:55.907Z,9.14
2023-01-13T10:28:24.382Z,9.19
2023-01-13T10:30:52.089Z,9.20
2023-01-13T10:33:27.595Z,9.22
2023-01-13T10:36:00.819Z,9.23
2023-01-13T10:38:42.029Z,9.25
2023-01-13T10:41:15.593Z,9.28
2023-01-13T10:43:59.025Z,9.28
2023-01-13T10:46:27.556Z,9.27
2023-01-13T10:48:57.204Z,9.29
2023-01-13T10:51:28.644Z,9.34
2023-01-13T10:54:14.323Z,9.31
2023-01-13T10:56:45.351Z,9.34
2023-01-13T10:59:30.312Z,9.33
2023-01-13T11:02:25.886Z,9.31
2023-01-13T11:04:54.021Z,9.27
2023-01-13T11:07:35.272Z,9.23
2023-01-13T11:10:23.839Z,9.22
2023-01-13T11:12:54.925Z,9.21
2023-01-13T11:15:32.438Z,9.21
2023-01-13T11:18:10.825Z,9.23
2023-01-13T11:20:42.447Z,9.26
2023-01-13T11:23:25.818Z,9.30
2023-01-13T11:25:59.779Z,9.39
2023-01-13T11:28:39.100Z,9.43
2023-01-13T11:31:21.663Z,9.45
2023-01-13T11:34:02.119Z,9.47
2023-01-13T11:36:39.218Z,9.46
2023-01-13T11:39:28.463Z,9.46
2023-01-13T11:42:25.757Z,9.48
2023-01-13T11:45:08.158Z,9.50
2023-01-13T11:47:36.676Z,9.53
2023-01-13T11:50:04.833Z,9.56
2023-01-13T11:53:06.337Z,9.56
2023-01-13T11:55:47.815Z,9.54
2023-01-13T11:58:45.619Z,9.52
2023-01-13T12:01:40.870Z,9.49
2023-01-13T12:04:41.522Z,9.46
2023-01-13T12:07:23.441Z,9.47
2023-01-13T12:10:13.388Z,9.47
2023-01-13T12:13:01.319Z,9.48
2023-01-13T12:15:36.043Z,9.48
2023-01-13T12:18:51.625Z,9.46
2023-01-13T12:21:27.861Z,9.46
2023-01-13T12:24:13.927Z,9.47
2023-01-13T12:26:56.658Z,9.48
2023-01-13T12:29:31.863Z,9.48
2023-01-13T12:32:02.502Z,9.43
2023-01-13T12:34:38.896Z,9.39
2023-01-13T12:37:38.921Z,9.33
2023-01-13T12:40:39.448Z,9.28
2023-01-13T12:43:39.076Z,9.22
2023-01-13T12:46:25.233Z,9.16
2023-01-13T12:48:57.359Z,9.12
2023-01-13T12:51:28.762Z,9.09
2023-01-13T12:54:20.889Z,9.04
2023-01-13T12:56:48.638Z,8.99
2023-01-13T12:59:22.002Z,8.97
2023-01-13T13:02:10.812Z,8.96
2023-01-13T13:04:49.470Z,8.96
2023-01-13T13:07:32.624Z,8.95
2023-01-13T13:10:32.105Z,8.95
2023-01-13T13:13:19.362Z,8.96
2023-01-13T13:15:52.071Z,8.95
2023-01-13T13:18:22.285Z,8.96
2023-01-13T13:21:09.145Z,8.98
2023-01-13T13:24:01.325Z,9.00
2023-01-13T13:26:33.131Z,9.00
2023-01-13T13:29:29.753Z,9.00
2023-01-13T13:32:44.668Z,8.97
2023-01-13T13:35:40.779Z,8.95
2023-01-13T13:39:06.206Z,8.93
2023-01-13T13:41:55.698Z,8.94
2023-01-13T13:44:59.257Z,8.93
2023-01-13T13:47:26.449Z,8.93
2023-01-13T13:49:55.028Z,8.92
2023-01-13T13:52:30.272Z,8.92
2023-01-13T13:55:10.139Z,8.91
2023-01-13T13:57:41.127Z,8.91
2023-01-13T14:00:23.596Z,8.90
2023-01-13T14:03:02.315Z,8.89
2023-01-13T14:05:37.068Z,8.90
2023-01-13T14:08:35.203Z,8.90
2023-01-13T14:11:42.257Z,8.88
2023-01-13T14:14:17.772Z,8.88
2023-01-13T14:16:45.266Z,8.86
2023-01-13T14:19:44.867Z,8.85
2023-01-13T14:22:16.753Z,8.86
2023-01-13T14:24:49.588Z,8.87
2023-01-13T14:27:19.382Z,8.89
2023-01-13T14:29:46.816Z,8.91
2023-01-13T14:32:20.596Z,8.91
2023-01-13T14:34:47.960Z,8.89
2023-01-13T14:37:37.166Z,8.88
2023-01-13T14:40:06.058Z,8.85
2023-01-13T14:42:36.025Z,8.82
2023-01-13T14:45:03.692Z,8.78
2023-01-13T14:47:35.039Z,8.75
2023-01-13T14:50:36.927Z,8.71
2023-01-13T14:53:05.517Z,8.66
2023-01-13T14:55:42.043Z,8.61
2023-01-13T14:58:24.746Z,8.57
2023-01-13T15:01:12.855Z,8.55
2023-01-13T15:03:42.891Z,8.52
2023-01-13T15:06:23.632Z,8.47
2023-01-13T15:08:51.015Z,8.39
2023-01-13T15:11:25.871Z,8.30
2023-01-13T15:13:59.464Z,8.23
2023-01-13T15:16:28.130Z,8.22
2023-01-13T15:18:56.527Z,8.21
2023-01-13T15:21:24.261Z,8.20
2023-01-13T15:23:51.752Z,8.16
2023-01-13T15:26:21.117Z,8.13
2023-01-13T15:28:49.359Z,8.09
2023-01-13T15:31:16.794Z,8.05
2023-01-13T15:33:44.195Z,8.01
2023-01-13T15:36:23.939Z,7.99
2023-01-13T15:38:51.946Z,7.98
2023-01-13T15:41:39.584Z,7.96
2023-01-13T15:44:25.414Z,7.97
2023-01-13T15:46:58.545Z,7.97
2023-01-13T15:49:35.470Z,7.94
2023-01-13T15:52:26.283Z,7.90
2023-01-13T15:54:54.462Z,7.86
2023-01-13T15:57:27.754Z,7.82
2023-01-13T15:59:58.015Z,7.79
2023-01-13T16:02:25.737Z,7.75
2023-01-13T16:04:54.503Z,7.71
2023-01-13T16:07:24.201Z,7.69
2023-01-13T16:09:51.983Z,7.70
2023-01-13T16:12:19.248Z,7.67
2023-01-13T16:14:46.385Z,7.65
2023-01-13T16:17:24.390Z,7.61
2023-01-13T16:19:52.409Z,7.58
2023-01-13T16:22:19.822Z,7.54
2023-01-13T16:24:47.084Z,7.51
2023-01-13T16:27:17.465Z,7.50
2023-01-13T16:29:46.006Z,7.48
2023-01-13T16:32:15.149Z,7.47
2023-01-13T16:34:42.526Z,7.45
2023-01-13T16:37:28.231Z,7.43
2023-01-13T16:39:55.330Z,7.41
2023-01-13T16:42:23.023Z,7.40
2023-01-13T16:44:51.018Z,7.42
2023-01-13T16:47:19.160Z,7.45
2023-01-13T16:49:47.031Z,7.49
2023-01-13T16:52:14.458Z,7.52
2023-01-13T16:54:41.557Z,7.54
2023-01-13T16:57:13.273Z,7.55
2023-01-13T16:59:40.301Z,7.56
2023-01-13T17:02:14.985Z,7.56
2023-01-13T17:04:42.070Z,7.55
2023-01-13T17:07:11.990Z,7.56
2023-01-13T17:09:39.102Z,7.58
2023-01-13T17:12:06.758Z,7.59
2023-01-13T17:14:33.707Z,7.62
2023-01-13T17:17:00.745Z,7.64
2023-01-13T17:19:27.914Z,7.68
2023-01-13T17:21:55.263Z,7.67
2023-01-13T17:24:22.289Z,7.65
2023-01-13T17:26:51.278Z,7.65
2023-01-13T17:29:23.632Z,7.65
2023-01-13T17:31:52.001Z,7.64
2023-01-13T17:34:20.002Z,7.66
2023-01-13T17:36:47.690Z,7.67
2023-01-13T17:39:20.338Z,7.70
2023-01-13T17:41:48.343Z,7.71
2023-01-13T17:44:16.891Z,7.70
2023-01-13T17:46:44.835Z,7.70
2023-01-13T17:49:17.155Z,7.68
2023-01-13T17:51:45.528Z,7.66
2023-01-13T17:54:12.746Z,7.65
2023-01-13T17:56:41.483Z,7.66
2023-01-13T17:59:10.617Z,7.69
2023-01-13T18:01:39.241Z,7.70
2023-01-13T18:04:07.474Z,7.70
2023-01-13T18:06:35.367Z,7.69
2023-01-13T18:09:02.706Z,7.66
2023-01-13T18:11:30.007Z,7.62
2023-01-13T18:14:06.204Z,7.57
2023-01-13T18:16:33.742Z,7.50
2023-01-13T18:19:19.761Z,7.42
2023-01-13T18:22:06.748Z,7.35
2023-01-13T18:24:52.848Z,7.28
2023-01-13T18:27:24.100Z,7.20
2023-01-13T18:29:53.843Z,7.15
2023-01-13T18:32:22.412Z,7.07
2023-01-13T18:34:56.114Z,6.99
2023-01-13T18:37:29.161Z,6.91
2023-01-13T18:39:56.206Z,6.85
2023-01-13T18:42:42.881Z,6.80
2023-01-13T18:45:10.768Z,6.74
2023-01-13T18:47:39.560Z,6.71
2023-01-13T18:50:07.678Z,6.68
2023-01-13T18:52:36.106Z,6.65
2023-01-13T18:55:03.205Z,6.61
2023-01-13T18:57:30.614Z,6.55
2023-01-13T18:59:58.067Z,6.51
2023-01-13T19:02:26.909Z,6.46
2023-01-13T19:04:54.959Z,6.40
2023-01-13T19:07:28.799Z,6.34
2023-01-13T19:09:56.365Z,6.29
2023-01-13T19:12:26.559Z,6.27
2023-01-13T19:15:01.046Z,6.27
2023-01-13T19:17:32.808Z,6.26
2023-01-13T19:20:00.266Z,6.25
2023-01-13T19:22:30.604Z,6.24
2023-01-13T19:24:58.236Z,6.25
2023-01-13T19:27:30.703Z,6.23
2023-01-13T19:30:02.332Z,6.21
2023-01-13T19:32:33.071Z,6.19
2023-01-13T19:35:00.238Z,6.16
2023-01-13T19:37:31.850Z,6.12
2023-01-13T19:39:59.363Z,6.09
2023-01-13T19:42:46.079Z,6.09
2023-01-13T19:45:27.310Z,6.09
2023-01-13T19:47:55.075Z,6.11
2023-01-13T19:50:22.139Z,6.11
2023-01-13T19:52:49.475Z,6.12
2023-01-13T19:55:16.730Z,6.14
2023-01-13T19:57:43.874Z,6.16
2023-01-13T20:00:12.754Z,6.17
2023-01-13T20:02:45.403Z,6.17
2023-01-13T20:05:18.428Z,6.12
2023-01-13T20:07:45.869Z,6.09
2023-01-13T20:10:13.855Z,6.03
2023-01-13T20:12:42.180Z,6.00
2023-01-13T20:15:10.411Z,6.00
2023-01-13T20:17:37.772Z,6.00
2023-01-13T20:20:05.446Z,5.99
2023-01-13T20:22:33.125Z,5.99
2023-01-13T20:25:00.211Z,5.99
2023-01-13T20:27:27.336Z,6.00
2023-01-13T20:29:54.297Z,6.00
2023-01-13T20:32:21.647Z,5.99
2023-01-13T20:34:48.594Z,5.97
2023-01-13T20:37:15.735Z,5.95
2023-01-13T20:39:48.692Z,5.95
2023-01-13T20:42:31.281Z,5.95
2023-01-13T20:44:59.949Z,5.96
2023-01-13T20:47:30.444Z,5.97
2023-01-13T20:49:57.593Z,5.96
2023-01-13T20:52:25.146Z,5.97
2023-01-13T20:54:52.307Z,5.95
2023-01-13T20:57:19.686Z,5.94
2023-01-13T20:59:46.909Z,5.91
2023-01-13T21:02:15.923Z,5.88
2023-01-13T21:04:43.941Z,5.87
2023-01-13T21:07:11.313Z,5.87
2023-01-13T21:09:38.158Z,5.89
2023-01-13T21:12:24.860Z,5.90
2023-01-13T21:15:11.204Z,5.92
2023-01-13T21:17:57.242Z,5.92
2023-01-13T21:20:24.328Z,5.91
2023-01-13T21:22:51.691Z,5.89
2023-01-13T21:25:19.524Z,5.87
2023-01-13T21:27:46.570Z,5.85
2023-01-13T21:30:15.779Z,5.82
2023-01-13T21:32:44.883Z,5.79
2023-01-13T21:35:13.611Z,5.79
2023-01-13T21:37:42.838Z,5.80
2023-01-13T21:40:13.467Z,5.81
2023-01-13T21:42:59.439Z,5.83
2023-01-13T21:45:46.032Z,5.85
2023-01-13T21:48:13.130Z,5.86
2023-01-13T21:50:40.519Z,5.87
2023-01-13T21:53:08.378Z,5.87
2023-01-13T21:55:37.144Z,5.87
2023-01-13T21:58:14.706Z,5.87
2023-01-13T22:00:43.816Z,5.83
2023-01-13T22:03:12.808Z,5.81
2023-01-13T22:05:40.230Z,5.81
2023-01-13T22:08:07.949Z,5.82
2023-01-13T22:10:35.340Z,5.83
2023-01-13T22:13:23.490Z,5.84
2023-01-13T22:15:50.646Z,5.85
2023-01-13T22:18:18.756Z,5.88
2023-01-13T22:20:46.554Z,5.87
2023-01-13T22:23:13.897Z,5.85
2023-01-13T22:25:41.204Z,5.82
2023-01-13T22:28:09.620Z,5.78
2023-01-13T22:30:36.934Z,5.77
2023-01-13T22:33:04.342Z,5.75
2023-01-13T22:35:31.493Z,5.75
2023-01-13T22:37:59.144Z,5.74
2023-01-13T22:40:26.509Z,5.75
2023-01-13T22:42:53.687Z,5.76
2023-01-13T22:45:21.006Z,5.77
2023-01-13T22:47:49.992Z,5.77
2023-01-13T22:50:21.024Z,5.75
2023-01-13T22:52:47.898Z,5.72
2023-01-13T22:55:15.014Z,5.67
2023-01-13T22:57:47.681Z,5.63
2023-01-13T23:00:19.428Z,5.60
2023-01-13T23:02:46.699Z,5.60
2023-01-13T23:05:14.401Z,5.59
2023-01-13T23:07:42.324Z,5.57
2023-01-13T23:10:10.597Z,5.58
2023-01-13T23:12:38.085Z,5.60
2023-01-13T23:15:05.864Z,5.61
2023-01-13T23:17:33.205Z,5.59
2023-01-13T23:20:07.866Z,5.57
2023-01-13T23:22:39.655Z,5.54
2023-01-13T23:25:18.776Z,5.50
2023-01-13T23:27:50.742Z,5.46
2023-01-13T23:30:18.448Z,5.44
2023-01-13T23:32:45.445Z,5.44
2023-01-13T23:35:12.672Z,5.44
2023-01-13T23:37:39.711Z,5.45
2023-01-13T23:40:07.386Z,5.47
2023-01-13T23:42:34.652Z,5.46
2023-01-13T23:45:02.428Z,5.47
2023-01-13T23:47:29.659Z,5.45
2023-01-13T23:49:57.011Z,5.42
2023-01-13T23:52:24.476Z,5.40
2023-01-13T23:54:51.547Z,5.35
2023-01-13T23:57:18.927Z,5.32
2023-01-13T23:59:47.413Z,5.30
